Address 0x76ea3385b40733c8d47b0e3e28fee6900da3348c 8

 
Ad
Ad
Txn Hash Method
Block
From
To
Value [Txn Fee]
0x458c3d5b95392710781325fb972705d06135c9cb97cfff1da9d49d68bbeba934Execute Meta Tra...193689602021-09-22 2:07:026 mins ago0x76ea3385b40733c8d47b0e3e28fee6900da3348cOUT 0x89aac1f5ccdd54dd8a09e5c858f19a665e4fa32b0 MATIC0.00214167
0x861d2627fba5fe6e794f8828d18629719a794a3e9de9753d7221a98e7d3809b1Execute Meta Tra...193687442021-09-22 1:59:3013 mins ago0x76ea3385b40733c8d47b0e3e28fee6900da3348cOUT 0x89aac1f5ccdd54dd8a09e5c858f19a665e4fa32b0 MATIC0.00214167
0x7b0ef3c57d1b0121922d5f70e7e854471ab56442c563d5945e305cf26bfe0b13Execute Meta Tra...193686402021-09-22 1:53:5219 mins ago0x76ea3385b40733c8d47b0e3e28fee6900da3348cOUT 0x89aac1f5ccdd54dd8a09e5c858f19a665e4fa32b0 MATIC0.00282762
0x9466530969459957b4c8f70a528739bbd21875a47a87a34f579cf4e06c7417c80x41706c4e193684802021-09-22 1:48:1424 mins ago0x76ea3385b40733c8d47b0e3e28fee6900da3348cOUT 0x86c80a8aa58e0a4fa09a69624c31ab2a6cad56b80 MATIC0.002499904
0x5a229ac702ad315d6b5b9b1f37ec076422ed46792aad0b279077899335d1fe20Execute Meta Tra...193682382021-09-22 1:39:5433 mins ago0x76ea3385b40733c8d47b0e3e28fee6900da3348cOUT 0x89aac1f5ccdd54dd8a09e5c858f19a665e4fa32b0 MATIC0.000943775957
0x8dfe99b51ceb3d66d0d133cb091545cac39d53ad158f279adcc2c000750b1aa9Execute Meta Tra...193678642021-09-22 1:26:4846 mins ago0x76ea3385b40733c8d47b0e3e28fee6900da3348cOUT 0x89aac1f5ccdd54dd8a09e5c858f19a665e4fa32b0 MATIC0.00570969222
0x413661b7a2ff4392e448a36e4e960fd84ebca069febf9c0f1728744c77f1788fExecute Meta Tra...193677262021-09-22 1:20:1052 mins ago0x76ea3385b40733c8d47b0e3e28fee6900da3348cOUT 0x89aac1f5ccdd54dd8a09e5c858f19a665e4fa32b0 MATIC0.0214179
0x5fb60dc3171dd3bb7f81b875154f3ad89588e56471c5e718a64e17ac9a5a8404Execute Meta Tra...193673942021-09-22 1:08:381 hr 4 mins ago0x76ea3385b40733c8d47b0e3e28fee6900da3348cOUT 0x89aac1f5ccdd54dd8a09e5c858f19a665e4fa32b0 MATIC0.010922517
0x822f9f2a52cf9ee2140850327c89e055f0adc4ec96b247d572963cb317567af4Execute Meta Tra...193672102021-09-22 1:01:361 hr 11 mins ago0x76ea3385b40733c8d47b0e3e28fee6900da3348cOUT 0x89aac1f5ccdd54dd8a09e5c858f19a665e4fa32b0 MATIC0.00642537
0xa1e23e80b44894fb7f6892e202e2dfce13909530be02e0f3dfc4f6fd9303c6d5Execute Meta Tra...193669852021-09-22 0:53:161 hr 19 mins ago0x76ea3385b40733c8d47b0e3e28fee6900da3348cOUT 0x89aac1f5ccdd54dd8a09e5c858f19a665e4fa32b0 MATIC0.002112711
0x475145aa3160c5d06a993edc2c45c3d7bd38683f0d9aa6760e1962f69f8e0beaExecute Meta Tra...193668112021-09-22 0:43:561 hr 29 mins ago0x76ea3385b40733c8d47b0e3e28fee6900da3348cOUT 0xa5f1ea7df861952863df2e8d1312f7305dabf2150 MATIC0.002475636186
0xcd7728180c292acd114b3a747c66a44960840be5da59291482288bf2d851c19dExecute Meta Tra...193663052021-09-22 0:25:351 hr 47 mins ago0x76ea3385b40733c8d47b0e3e28fee6900da3348cOUT 0x89aac1f5ccdd54dd8a09e5c858f19a665e4fa32b0 MATIC0.007067115
0xbe017240062db203139a7431a476245c59d8b2eba9208fda5fb5e70de06814f6Execute Meta Tra...193659642021-09-22 0:11:342 hrs 1 min ago0x76ea3385b40733c8d47b0e3e28fee6900da3348cOUT 0xeda1f66f5c765ac16b4333c53f3f83f781d01c8b0 MATIC0.10356
0xaf3c95826d0bc89f69c8f8eefa05e2baf769c5b8f5387a24b9d52aade9c79d49Execute Meta Tra...193657792021-09-22 0:04:222 hrs 8 mins ago0x76ea3385b40733c8d47b0e3e28fee6900da3348cOUT 0x89aac1f5ccdd54dd8a09e5c858f19a665e4fa32b0 MATIC0.00642501
0xa64d2adfa86acb82cd0846dd9e3edcb8db81d4b25ad259e65bf237c4800a6d2aExecute Meta Tra...193655532021-09-21 23:56:342 hrs 16 mins ago0x76ea3385b40733c8d47b0e3e28fee6900da3348cOUT 0x89aac1f5ccdd54dd8a09e5c858f19a665e4fa32b0 MATIC0.006220009911
0x39e85364d344b874666550ac89d88d925b4c26f5f4f7c514e59bf58da15752e7Execute Meta Tra...193653832021-09-21 23:50:462 hrs 22 mins ago0x76ea3385b40733c8d47b0e3e28fee6900da3348cOUT 0x89aac1f5ccdd54dd8a09e5c858f19a665e4fa32b0 MATIC0.0188484
0xaae6ab4f40b3fdd0e14801b4145a75e6c21c3b459c9d42bdc3acd078a3c7c400Execute Meta Tra...193651602021-09-21 23:38:232 hrs 34 mins ago0x76ea3385b40733c8d47b0e3e28fee6900da3348cOUT 0x7adbced399630dd11a97f2e2dc206911167071ae0 MATIC0.0179997
0x25f046c90a3d9f4d4ba3c3702807c95d5fc230756c53864377dbc17d330f07f3Execute Meta Tra...193649782021-09-21 23:29:592 hrs 43 mins ago0x76ea3385b40733c8d47b0e3e28fee6900da3348cOUT 0x89aac1f5ccdd54dd8a09e5c858f19a665e4fa32b0 MATIC0.008352981
0x77569b66beb9fde617f41f3be8802c4ef263d2b8c194882dd55beb0574a37e890x41706c4e193648142021-09-21 23:22:452 hrs 50 mins ago0x76ea3385b40733c8d47b0e3e28fee6900da3348cOUT 0x86c80a8aa58e0a4fa09a69624c31ab2a6cad56b80 MATIC0.001093064652
0x069dcd6e338b3bfaa98fcf2bbeb91510772c9b8207d3def88ce1f0d335feb71f0x41706c4e193645382021-09-21 23:12:233 hrs ago0x76ea3385b40733c8d47b0e3e28fee6900da3348cOUT 0x86c80a8aa58e0a4fa09a69624c31ab2a6cad56b80 MATIC0.0038681
0xd87c23d6c13794e5f5cad954c720f1d9bbd4461908d6e4dcee64aa3d4636f42dExecute Meta Tra...193643862021-09-21 23:03:153 hrs 9 mins ago0x76ea3385b40733c8d47b0e3e28fee6900da3348cOUT 0x89aac1f5ccdd54dd8a09e5c858f19a665e4fa32b0 MATIC0.0214179
0x2f2c14abd2888dcfbab4b4315e86f359e8641ee657d4d461d7dba1a8ebd4436bExecute Meta Tra...193641622021-09-21 22:55:353 hrs 17 mins ago0x76ea3385b40733c8d47b0e3e28fee6900da3348cOUT 0x89aac1f5ccdd54dd8a09e5c858f19a665e4fa32b0 MATIC0.004059613803
0x2671f77cb0a969bf083791aaec314d7d81731d53ac44db98ce8a33e9dd1a7239Execute Meta Tra...193639162021-09-21 22:44:523 hrs 28 mins ago0x76ea3385b40733c8d47b0e3e28fee6900da3348cOUT 0x89aac1f5ccdd54dd8a09e5c858f19a665e4fa32b0 MATIC0.00602043975
0x6c3db75d363488643a8638497552f90854cf6ced449aa83ab40a8534e94322a3Execute Meta Tra...193637172021-09-21 22:38:023 hrs 35 mins ago0x76ea3385b40733c8d47b0e3e28fee6900da3348cOUT 0xeda1f66f5c765ac16b4333c53f3f83f781d01c8b0 MATIC0.01772348
0x7896b2a23c7f8cd62e7d20056a0fce440e93158758bb081675eddc1f58a97fe4Execute Meta Tra...193635232021-09-21 22:31:223 hrs 41 mins ago0x76ea3385b40733c8d47b0e3e28fee6900da3348cOUT 0x89aac1f5ccdd54dd8a09e5c858f19a665e4fa32b0 MATIC0.011779185
[ Download CSV Export 
Parent Txn Hash Block From To Value
Loading

Contract Name:
0 MATIC

Compiler Version
0

Optimization Enabled:
0 MATIC

Other Settings:
-NA-
Block Transaction Gas Used Reward
Age Block Fee Address BC Fee Address Voting Power Jailed Incoming
Block Uncle Number Difficulty Gas Used Reward
Loading
Loading
Make sure to use the "Vote Down" button for any spammy posts, and the "Vote Up" for interesting conversations.